createdAt,value
2023-03-16T00:02:15.139Z,5.47
2023-03-16T00:04:41.889Z,6.20
2023-03-16T00:07:10.702Z,4.88
2023-03-16T00:09:38.133Z,7.82
2023-03-16T00:12:07.762Z,5.63
2023-03-16T00:14:34.467Z,6.63
2023-03-16T00:17:01.378Z,5.00
2023-03-16T00:19:28.076Z,7.38
2023-03-16T00:21:54.832Z,6.40
2023-03-16T00:24:21.538Z,8.98
2023-03-16T00:26:48.679Z,3.50
2023-03-16T00:29:16.738Z,6.15
2023-03-16T00:31:43.621Z,6.32
2023-03-16T00:34:10.698Z,5.03
2023-03-16T00:36:37.593Z,6.43
2023-03-16T00:39:04.872Z,5.22
2023-03-16T00:41:31.575Z,7.10
2023-03-16T00:43:58.297Z,7.63
2023-03-16T00:46:26.345Z,4.30
2023-03-16T00:48:53.059Z,6.22
2023-03-16T00:51:19.903Z,6.15
2023-03-16T00:53:47.013Z,4.55
2023-03-16T00:56:13.808Z,5.70
2023-03-16T00:58:41.723Z,4.05
2023-03-16T01:01:11.652Z,6.38
2023-03-16T01:03:40.131Z,5.80
2023-03-16T01:06:08.174Z,7.15
2023-03-16T01:08:34.876Z,5.82
2023-03-16T01:11:05.265Z,9.23
2023-03-16T01:13:32.055Z,7.00
2023-03-16T01:15:59.022Z,6.53
2023-03-16T01:18:25.856Z,5.70
2023-03-16T01:20:54.996Z,6.28
2023-03-16T01:23:22.005Z,7.20
2023-03-16T01:25:48.744Z,5.68
2023-03-16T01:28:15.446Z,6.43
2023-03-16T01:30:43.772Z,6.20
2023-03-16T01:33:10.554Z,9.35
2023-03-16T01:35:37.293Z,8.48
2023-03-16T01:38:05.385Z,6.82
2023-03-16T01:40:32.064Z,13.95
2023-03-16T01:43:02.162Z,6.82
2023-03-16T01:46:08.643Z,6.05
2023-03-16T01:48:40.378Z,5.88
2023-03-16T01:51:11.751Z,6.82
2023-03-16T01:53:43.799Z,8.40
2023-03-16T01:56:13.948Z,6.05
2023-03-16T01:58:43.878Z,10.13
2023-03-16T02:01:11.864Z,9.30
2023-03-16T02:03:40.542Z,9.77
2023-03-16T02:06:11.836Z,7.47
2023-03-16T02:08:42.410Z,6.47
2023-03-16T02:11:09.909Z,6.45
2023-03-16T02:13:36.721Z,9.32
2023-03-16T02:16:05.738Z,6.30
2023-03-16T02:18:33.102Z,6.47
2023-03-16T02:21:07.432Z,5.85
2023-03-16T02:23:34.251Z,5.95
2023-03-16T02:26:10.209Z,6.50
2023-03-16T02:28:45.238Z,5.55
2023-03-16T02:31:13.826Z,7.38
2023-03-16T02:33:41.373Z,6.95
2023-03-16T02:36:08.680Z,10.40
2023-03-16T02:38:35.482Z,8.50
2023-03-16T02:41:11.496Z,7.43
2023-03-16T02:43:41.705Z,6.60
2023-03-16T02:46:08.789Z,5.55
2023-03-16T02:48:44.010Z,4.95
2023-03-16T02:51:11.488Z,7.38
2023-03-16T02:53:38.242Z,5.60
2023-03-16T02:56:05.827Z,6.63
2023-03-16T02:58:32.871Z,6.78
2023-03-16T03:00:59.826Z,9.80
2023-03-16T03:03:26.572Z,6.40
2023-03-16T03:05:54.701Z,5.68
2023-03-16T03:08:21.487Z,6.05
2023-03-16T03:10:48.466Z,9.05
2023-03-16T03:13:15.321Z,4.25
2023-03-16T03:15:42.037Z,6.43
2023-03-16T03:18:08.760Z,7.15
2023-03-16T03:20:35.571Z,7.72
2023-03-16T03:23:03.909Z,7.82
2023-03-16T03:25:30.898Z,6.38
2023-03-16T03:27:57.643Z,8.52
2023-03-16T03:30:25.360Z,6.45
2023-03-16T03:32:52.398Z,5.68
2023-03-16T03:35:20.300Z,11.70
2023-03-16T03:37:47.754Z,6.55
2023-03-16T03:40:17.443Z,5.22
2023-03-16T03:42:44.239Z,7.40
2023-03-16T03:45:12.742Z,7.72
2023-03-16T03:47:40.182Z,6.90
2023-03-16T03:50:08.807Z,6.38
2023-03-16T03:52:35.524Z,7.13
2023-03-16T03:55:02.272Z,7.88
2023-03-16T03:57:30.294Z,5.35
2023-03-16T03:59:57.041Z,10.77
2023-03-16T04:02:23.813Z,6.18
2023-03-16T04:04:50.727Z,6.55
2023-03-16T04:07:17.775Z,8.43
2023-03-16T04:09:44.588Z,7.53
2023-03-16T04:12:11.923Z,6.25
2023-03-16T04:14:39.989Z,7.53
2023-03-16T04:17:06.787Z,6.93
2023-03-16T04:19:33.722Z,10.38
2023-03-16T04:22:00.435Z,7.15
2023-03-16T04:24:27.192Z,8.00
2023-03-16T04:26:53.901Z,9.30
2023-03-16T04:29:21.048Z,6.30
2023-03-16T04:31:49.176Z,12.82
2023-03-16T04:34:15.893Z,6.85
2023-03-16T04:36:42.644Z,8.90
2023-03-16T04:39:09.614Z,6.68
2023-03-16T04:41:36.497Z,8.15
2023-03-16T04:44:03.437Z,9.90
2023-03-16T04:46:30.431Z,10.98
2023-03-16T04:48:58.678Z,10.73
2023-03-16T04:51:25.641Z,14.52
2023-03-16T04:53:53.088Z,19.33
2023-03-16T04:56:20.001Z,32.03
2023-03-16T04:58:47.584Z,12.52
2023-03-16T05:01:14.606Z,11.27
2023-03-16T05:03:41.518Z,18.67
2023-03-16T05:06:10.426Z,17.65
2023-03-16T05:08:37.204Z,17.85
2023-03-16T05:11:03.993Z,11.82
2023-03-16T05:13:30.719Z,18.23
2023-03-16T05:15:57.463Z,16.27
2023-03-16T05:18:24.426Z,15.77
2023-03-16T05:20:52.462Z,13.65
2023-03-16T05:23:21.198Z,17.42
2023-03-16T05:25:48.512Z,16.50
2023-03-16T05:28:15.511Z,12.90
2023-03-16T05:30:42.342Z,16.73
2023-03-16T05:33:09.202Z,11.32
2023-03-16T05:35:36.053Z,12.13
2023-03-16T05:38:03.787Z,11.23
2023-03-16T05:40:31.865Z,10.75
2023-03-16T05:42:58.780Z,11.70
2023-03-16T05:45:25.517Z,13.13
2023-03-16T05:47:52.245Z,15.48
2023-03-16T05:50:19.257Z,21.75
2023-03-16T05:52:46.913Z,13.95
2023-03-16T05:55:15.142Z,12.13
2023-03-16T05:57:43.287Z,11.23
2023-03-16T06:00:12.726Z,15.75
2023-03-16T06:02:39.518Z,13.95
2023-03-16T06:05:07.024Z,14.50
2023-03-16T06:07:33.853Z,12.55
2023-03-16T06:10:00.625Z,12.05
2023-03-16T06:12:27.406Z,18.83
2023-03-16T06:14:55.487Z,15.40
2023-03-16T06:17:22.229Z,15.82
2023-03-16T06:19:49.109Z,20.75
2023-03-16T06:22:15.993Z,14.63
2023-03-16T06:24:42.752Z,19.98
2023-03-16T06:27:09.758Z,17.70
2023-03-16T06:29:36.496Z,19.05
2023-03-16T06:32:05.139Z,19.02
2023-03-16T06:34:31.856Z,15.32
2023-03-16T06:36:58.614Z,15.15
2023-03-16T06:39:25.395Z,21.48
2023-03-16T06:41:52.072Z,18.38
2023-03-16T06:44:18.774Z,18.85
2023-03-16T06:46:45.474Z,17.95
2023-03-16T06:49:13.584Z,12.30
2023-03-16T06:51:40.299Z,17.88
2023-03-16T06:54:07.161Z,16.42
2023-03-16T06:56:33.906Z,14.18
2023-03-16T06:59:00.631Z,13.63
2023-03-16T07:01:27.592Z,13.48
2023-03-16T07:03:54.351Z,16.70
2023-03-16T07:06:22.498Z,14.45
2023-03-16T07:08:49.280Z,16.55
2023-03-16T07:11:16.022Z,16.55
2023-03-16T07:13:42.753Z,13.82
2023-03-16T07:16:09.489Z,13.85
2023-03-16T07:18:36.309Z,14.90
2023-03-16T07:21:03.063Z,12.85
2023-03-16T07:23:31.133Z,16.67
2023-03-16T07:25:58.120Z,12.30
2023-03-16T07:28:24.836Z,13.38
2023-03-16T07:31:02.991Z,13.20
2023-03-16T07:33:30.714Z,13.35
2023-03-16T07:35:57.436Z,10.52
2023-03-16T07:38:24.224Z,12.25
2023-03-16T07:40:52.290Z,10.45
2023-03-16T07:43:19.108Z,12.15
2023-03-16T07:45:48.262Z,14.55
2023-03-16T07:48:15.113Z,13.02
2023-03-16T07:50:41.863Z,15.07
2023-03-16T07:53:08.679Z,17.27
2023-03-16T07:55:35.474Z,13.48
2023-03-16T07:58:03.549Z,11.05
2023-03-16T08:00:30.778Z,13.18
2023-03-16T08:02:57.814Z,13.68
2023-03-16T08:05:27.229Z,8.88
2023-03-16T08:07:54.436Z,12.18
2023-03-16T08:10:21.434Z,13.90
2023-03-16T08:12:48.209Z,10.43
2023-03-16T08:15:16.423Z,13.98
2023-03-16T08:17:43.260Z,13.73
2023-03-16T08:20:11.625Z,9.82
2023-03-16T08:22:38.387Z,14.50
2023-03-16T08:25:06.360Z,10.90
2023-03-16T08:27:33.249Z,13.82
2023-03-16T08:30:00.090Z,11.98
2023-03-16T08:32:28.194Z,16.23
2023-03-16T08:34:55.801Z,11.18
2023-03-16T08:37:22.525Z,11.10
2023-03-16T08:39:49.584Z,12.23
2023-03-16T08:42:16.293Z,12.40
2023-03-16T08:44:43.150Z,13.55
2023-03-16T08:47:10.498Z,10.18
2023-03-16T08:49:38.661Z,11.02
2023-03-16T08:52:06.015Z,13.27
2023-03-16T08:54:32.850Z,10.75
2023-03-16T08:56:59.574Z,14.20
2023-03-16T08:59:30.306Z,10.50
2023-03-16T09:01:58.193Z,11.18
2023-03-16T09:04:25.067Z,15.43
2023-03-16T09:07:08.021Z,12.52
2023-03-16T09:09:35.966Z,9.82
2023-03-16T09:12:03.074Z,14.10
2023-03-16T09:14:30.174Z,10.93
2023-03-16T09:16:56.941Z,12.07
2023-03-16T09:19:23.977Z,12.55
2023-03-16T09:21:50.700Z,9.57
2023-03-16T09:24:18.887Z,11.15
2023-03-16T09:26:45.640Z,13.18
2023-03-16T09:29:12.498Z,10.70
2023-03-16T09:31:39.225Z,13.05
2023-03-16T09:34:05.932Z,12.43
2023-03-16T09:36:32.626Z,22.40
2023-03-16T09:38:59.307Z,13.52
2023-03-16T09:41:36.086Z,13.20
2023-03-16T09:44:17.271Z,9.35
2023-03-16T09:46:46.966Z,16.85
2023-03-16T09:49:17.787Z,13.70
2023-03-16T09:51:51.786Z,11.35
2023-03-16T09:56:52.321Z,11.02
2023-03-16T09:59:19.082Z,10.32
2023-03-16T10:02:02.350Z,10.63
2023-03-16T10:04:44.971Z,12.38
2023-03-16T10:07:25.392Z,9.75
2023-03-16T10:09:56.778Z,10.00
2023-03-16T10:12:30.911Z,10.25
2023-03-16T10:15:03.201Z,9.18
2023-03-16T10:17:35.440Z,8.77
2023-03-16T10:20:04.671Z,9.70
2023-03-16T10:22:33.185Z,9.70
2023-03-16T10:25:06.328Z,12.20
2023-03-16T10:27:36.165Z,12.33
2023-03-16T10:30:11.076Z,6.97
2023-03-16T10:32:37.844Z,11.02
2023-03-16T10:35:22.971Z,11.05
2023-03-16T10:37:49.721Z,9.48
2023-03-16T10:40:16.729Z,9.75
2023-03-16T10:42:44.775Z,9.63
2023-03-16T10:45:23.781Z,8.02
2023-03-16T10:47:50.694Z,8.02
2023-03-16T10:50:23.759Z,16.27
2023-03-16T10:52:50.530Z,10.88
2023-03-16T10:55:20.994Z,8.48
2023-03-16T10:57:51.820Z,9.52
2023-03-16T11:00:22.679Z,12.15
2023-03-16T11:02:51.387Z,11.85
2023-03-16T11:05:27.499Z,10.20
2023-03-16T11:07:59.569Z,8.00
2023-03-16T11:10:29.637Z,10.60
2023-03-16T11:13:04.171Z,11.82
2023-03-16T11:15:39.089Z,9.70
2023-03-16T11:18:08.595Z,8.40
2023-03-16T11:20:35.640Z,10.93
2023-03-16T11:23:02.505Z,9.05
2023-03-16T11:25:33.648Z,10.02
2023-03-16T11:28:12.432Z,10.82
2023-03-16T11:30:43.910Z,12.45
2023-03-16T11:33:13.047Z,7.60
2023-03-16T11:35:58.703Z,13.93
2023-03-16T11:38:31.936Z,13.13
2023-03-16T11:41:01.314Z,11.45
2023-03-16T11:43:47.651Z,8.63
2023-03-16T11:46:18.618Z,16.42
2023-03-16T11:48:57.323Z,12.32
2023-03-16T11:51:34.764Z,13.23
2023-03-16T11:54:14.370Z,14.13
2023-03-16T11:56:46.515Z,13.70
2023-03-16T11:59:55.430Z,13.80
2023-03-16T12:02:48.879Z,11.80
2023-03-16T12:05:47.960Z,13.38
2023-03-16T12:08:33.486Z,10.85
2023-03-16T12:11:03.695Z,10.15
2023-03-16T12:13:46.250Z,11.70
2023-03-16T12:16:19.305Z,15.65
2023-03-16T12:18:52.059Z,12.30
2023-03-16T12:21:22.237Z,14.77
2023-03-16T12:23:52.129Z,13.07
2023-03-16T12:26:21.297Z,9.75
2023-03-16T12:28:48.961Z,9.55
2023-03-16T12:31:19.379Z,15.85
2023-03-16T12:33:59.600Z,15.57
2023-03-16T12:36:50.785Z,10.45
2023-03-16T12:39:24.742Z,9.70
2023-03-16T12:42:05.119Z,12.50
2023-03-16T12:44:38.373Z,12.02
2023-03-16T12:47:14.011Z,11.47
2023-03-16T12:49:42.168Z,10.75
2023-03-16T12:52:11.593Z,9.88
2023-03-16T12:54:49.924Z,11.15
2023-03-16T12:57:17.563Z,9.93
2023-03-16T12:59:46.154Z,8.70
2023-03-16T13:02:17.403Z,12.30
2023-03-16T13:04:50.559Z,9.48
2023-03-16T13:07:20.548Z,9.60
2023-03-16T13:09:51.654Z,11.32
2023-03-16T13:12:24.599Z,9.65
2023-03-16T13:14:51.420Z,8.57
2023-03-16T13:17:27.698Z,10.00
2023-03-16T13:20:06.180Z,9.57
2023-03-16T13:22:43.797Z,11.10
2023-03-16T13:25:17.340Z,7.85
2023-03-16T13:27:45.988Z,9.40
2023-03-16T13:30:22.381Z,8.80
2023-03-16T13:32:54.308Z,10.05
2023-03-16T13:35:27.836Z,11.25
2023-03-16T13:37:54.963Z,12.35
2023-03-16T13:40:24.435Z,12.50
2023-03-16T13:42:52.046Z,7.65
2023-03-16T13:45:21.877Z,7.32
2023-03-16T13:47:48.851Z,8.90
2023-03-16T13:50:17.023Z,11.57
2023-03-16T13:52:53.088Z,12.18
2023-03-16T13:55:27.102Z,9.55
2023-03-16T13:57:54.132Z,8.20
2023-03-16T14:00:23.345Z,8.55
2023-03-16T14:02:53.040Z,10.68
2023-03-16T14:05:22.799Z,12.30
2023-03-16T14:07:51.639Z,9.30
2023-03-16T14:10:19.486Z,9.63
2023-03-16T14:12:55.998Z,8.35
2023-03-16T14:15:26.160Z,8.13
2023-03-16T14:18:12.377Z,10.23
2023-03-16T14:20:41.539Z,12.20
2023-03-16T14:23:18.498Z,11.77
2023-03-16T14:25:47.131Z,9.43
2023-03-16T14:28:15.608Z,8.48
2023-03-16T14:30:50.903Z,8.95
2023-03-16T14:33:26.871Z,10.30
2023-03-16T14:35:55.710Z,10.73
2023-03-16T14:38:30.199Z,9.48
2023-03-16T14:40:58.562Z,7.28
2023-03-16T14:43:29.644Z,7.53
2023-03-16T14:45:56.960Z,10.20
2023-03-16T14:48:24.432Z,9.07
2023-03-16T14:50:54.075Z,10.07
2023-03-16T14:53:21.039Z,7.82
2023-03-16T14:55:49.059Z,6.90
2023-03-16T14:58:15.826Z,8.88
2023-03-16T15:00:52.876Z,9.93
2023-03-16T15:03:23.284Z,7.78
2023-03-16T15:05:51.431Z,7.70
2023-03-16T15:08:22.075Z,6.38
2023-03-16T15:10:50.619Z,6.72
2023-03-16T15:13:19.643Z,7.55
2023-03-16T15:15:46.368Z,5.80
2023-03-16T15:18:13.064Z,5.78
2023-03-16T15:20:42.392Z,8.75
2023-03-16T15:23:13.284Z,6.75
2023-03-16T15:25:41.165Z,6.13
2023-03-16T15:28:14.558Z,5.70
2023-03-16T15:30:41.448Z,6.70
2023-03-16T15:33:09.046Z,5.75
2023-03-16T15:35:36.018Z,5.10
2023-03-16T15:38:11.544Z,9.57
2023-03-16T15:40:41.117Z,8.18
2023-03-16T15:43:12.319Z,5.88
2023-03-16T15:45:39.042Z,7.25
2023-03-16T15:48:06.047Z,6.22
2023-03-16T15:50:33.278Z,5.90
2023-03-16T15:53:04.382Z,5.15
2023-03-16T15:55:35.012Z,5.38
2023-03-16T15:58:02.285Z,4.88
2023-03-16T16:00:32.564Z,5.55
2023-03-16T16:03:00.466Z,5.85
2023-03-16T16:05:28.179Z,5.28
2023-03-16T16:07:55.005Z,8.35
2023-03-16T16:10:22.069Z,6.60
2023-03-16T16:12:50.225Z,5.95
2023-03-16T16:15:22.755Z,6.40
2023-03-16T16:18:16.345Z,4.70
2023-03-16T16:20:37.980Z,4.63
2023-03-16T16:23:04.710Z,6.53
2023-03-16T16:25:37.179Z,5.25
2023-03-16T16:28:11.383Z,12.20
2023-03-16T16:30:38.139Z,4.60
2023-03-16T16:33:21.106Z,5.63
2023-03-16T16:35:47.937Z,6.53
2023-03-16T16:38:14.757Z,5.05
2023-03-16T16:40:42.083Z,9.07
2023-03-16T16:43:12.702Z,15.13
2023-03-16T16:45:39.485Z,11.50
2023-03-16T16:48:23.437Z,21.13
2023-03-16T16:50:50.158Z,9.93
2023-03-16T16:53:19.926Z,11.40
2023-03-16T16:55:46.688Z,18.55
2023-03-16T16:58:23.865Z,13.35
2023-03-16T17:00:54.269Z,15.98
2023-03-16T17:03:24.810Z,20.15
2023-03-16T17:05:52.303Z,13.35
2023-03-16T17:08:19.777Z,15.13
2023-03-16T17:10:47.432Z,8.70
2023-03-16T17:13:24.679Z,9.50
2023-03-16T17:15:51.659Z,13.77
2023-03-16T17:18:18.686Z,12.07
2023-03-16T17:20:47.377Z,8.75
2023-03-16T17:23:25.937Z,5.68
2023-03-16T17:25:53.007Z,6.60
2023-03-16T17:28:19.856Z,13.48
2023-03-16T17:30:47.276Z,13.75
2023-03-16T17:33:16.023Z,24.13
2023-03-16T17:35:42.756Z,32.83
2023-03-16T17:38:20.385Z,16.63
2023-03-16T17:40:50.725Z,17.23
2023-03-16T17:43:19.401Z,18.55
2023-03-16T17:45:47.349Z,20.27
2023-03-16T17:48:16.012Z,6.18
2023-03-16T17:50:43.700Z,7.95
2023-03-16T17:53:10.404Z,10.88
2023-03-16T17:55:38.768Z,8.02
2023-03-16T17:58:06.020Z,7.63
2023-03-16T18:00:35.301Z,8.77
2023-03-16T18:03:03.435Z,6.57
2023-03-16T18:05:32.559Z,7.18
2023-03-16T18:08:01.185Z,6.47
2023-03-16T18:10:29.668Z,11.23
2023-03-16T18:13:02.257Z,6.35
2023-03-16T18:15:33.580Z,5.75
2023-03-16T18:18:01.688Z,5.93
2023-03-16T18:20:30.675Z,14.80
2023-03-16T18:22:59.337Z,19.40
2023-03-16T18:25:31.856Z,14.80
2023-03-16T18:28:00.715Z,11.02
2023-03-16T18:30:28.621Z,12.88
2023-03-16T18:32:56.740Z,19.45
2023-03-16T18:35:30.518Z,11.57
2023-03-16T18:37:57.704Z,9.75
2023-03-16T18:40:25.294Z,7.05
2023-03-16T18:42:52.723Z,6.90
2023-03-16T18:45:21.290Z,6.15
2023-03-16T18:47:51.007Z,7.20
2023-03-16T18:50:23.399Z,7.75
2023-03-16T18:52:50.872Z,5.15
2023-03-16T18:55:20.030Z,6.32
2023-03-16T18:57:47.343Z,6.45
2023-03-16T19:00:16.674Z,8.63
2023-03-16T19:02:45.678Z,6.32
2023-03-16T19:05:16.556Z,11.10
2023-03-16T19:07:46.072Z,11.55
2023-03-16T19:10:21.774Z,8.00
2023-03-16T19:12:48.564Z,7.55
2023-03-16T19:15:21.564Z,5.70
2023-03-16T19:17:50.046Z,6.53
2023-03-16T19:20:18.526Z,6.75
2023-03-16T19:22:46.530Z,5.35
2023-03-16T19:25:18.156Z,9.13
2023-03-16T19:27:45.741Z,10.25
2023-03-16T19:30:21.075Z,5.60
2023-03-16T19:32:49.365Z,7.30
2023-03-16T19:35:17.335Z,8.82
2023-03-16T19:37:44.080Z,10.20
2023-03-16T19:40:12.639Z,10.05
2023-03-16T19:42:39.674Z,7.95
2023-03-16T19:45:14.801Z,6.82
2023-03-16T19:47:41.523Z,11.60
2023-03-16T19:50:16.482Z,7.60
2023-03-16T19:52:43.600Z,11.10
2023-03-16T19:55:15.080Z,5.97
2023-03-16T19:57:41.968Z,7.43
2023-03-16T20:00:17.175Z,7.07
2023-03-16T20:02:43.959Z,8.35
2023-03-16T20:05:17.388Z,15.98
2023-03-16T20:07:44.262Z,24.08
2023-03-16T20:10:16.836Z,13.38
2023-03-16T20:12:43.797Z,19.50
2023-03-16T20:15:14.773Z,8.63
2023-03-16T20:17:41.785Z,7.30
2023-03-16T20:20:20.978Z,9.55
2023-03-16T20:22:47.723Z,6.47
2023-03-16T20:25:14.782Z,7.72
2023-03-16T20:27:41.920Z,11.15
2023-03-16T20:30:15.715Z,7.10
2023-03-16T20:32:43.614Z,7.05
2023-03-16T20:35:23.681Z,8.98
2023-03-16T20:37:50.972Z,8.85
2023-03-16T20:40:17.965Z,6.88
2023-03-16T20:42:45.010Z,8.20
2023-03-16T20:45:16.674Z,7.07
2023-03-16T20:47:43.691Z,7.35
2023-03-16T20:50:18.701Z,7.10
2023-03-16T20:52:47.104Z,9.50
2023-03-16T20:55:15.163Z,11.75
2023-03-16T20:57:42.736Z,8.10
2023-03-16T21:00:23.730Z,8.07
2023-03-16T21:02:50.443Z,8.48
2023-03-16T21:05:17.238Z,8.70
2023-03-16T21:07:44.146Z,8.55
2023-03-16T21:10:15.376Z,8.60
2023-03-16T21:12:44.436Z,11.88
2023-03-16T21:15:18.962Z,8.07
2023-03-16T21:17:45.724Z,9.63
2023-03-16T21:20:15.552Z,8.70
2023-03-16T21:22:42.612Z,8.30
2023-03-16T21:25:20.456Z,9.40
2023-03-16T21:27:47.989Z,7.57
2023-03-16T21:30:21.691Z,10.63
2023-03-16T21:32:48.623Z,9.75
2023-03-16T21:35:16.026Z,9.00
2023-03-16T21:37:42.763Z,7.63
2023-03-16T21:40:16.476Z,10.75
2023-03-16T21:42:44.780Z,9.07
2023-03-16T21:45:12.010Z,27.23
2023-03-16T21:47:39.272Z,10.18
2023-03-16T21:50:14.988Z,10.93
2023-03-16T21:52:42.454Z,10.30
2023-03-16T21:55:23.239Z,7.13
2023-03-16T21:57:52.404Z,9.98
2023-03-16T22:00:22.452Z,7.18
2023-03-16T22:02:51.203Z,8.90
2023-03-16T22:05:30.174Z,5.80
2023-03-16T22:07:57.440Z,8.90
2023-03-16T22:10:24.613Z,9.27
2023-03-16T22:12:52.684Z,11.43
2023-03-16T22:15:19.376Z,6.68
2023-03-16T22:17:46.390Z,7.68
2023-03-16T22:20:17.183Z,9.43
2023-03-16T22:22:44.092Z,10.15
2023-03-16T22:25:13.864Z,10.48
2023-03-16T22:27:40.562Z,8.77
2023-03-16T22:30:15.833Z,5.93
2023-03-16T22:32:42.694Z,5.72
2023-03-16T22:35:21.860Z,6.65
2023-03-16T22:37:48.618Z,8.73
2023-03-16T22:40:17.471Z,8.07
2023-03-16T22:42:44.861Z,8.35
2023-03-16T22:45:16.885Z,6.30
2023-03-16T22:47:43.624Z,7.07
2023-03-16T22:50:14.390Z,6.28
2023-03-16T22:52:41.161Z,6.15
2023-03-16T22:55:14.783Z,6.65
2023-03-16T22:57:41.525Z,5.93
2023-03-16T23:00:11.742Z,6.65
2023-03-16T23:02:40.517Z,8.25
2023-03-16T23:05:19.670Z,6.45
2023-03-16T23:07:46.395Z,10.45
2023-03-16T23:10:15.943Z,6.28
2023-03-16T23:12:42.900Z,6.07
2023-03-16T23:15:17.288Z,6.43
2023-03-16T23:17:45.464Z,6.32
2023-03-16T23:20:21.032Z,6.47
2023-03-16T23:22:48.110Z,6.43
2023-03-16T23:25:15.440Z,7.75
2023-03-16T23:27:42.312Z,5.35
2023-03-16T23:30:16.050Z,7.20
2023-03-16T23:32:43.478Z,6.80
2023-03-16T23:35:16.960Z,8.48
2023-03-16T23:37:44.176Z,5.88
2023-03-16T23:40:12.381Z,6.05
2023-03-16T23:42:40.310Z,5.90
2023-03-16T23:45:11.388Z,6.78
2023-03-16T23:47:38.218Z,6.15
2023-03-16T23:50:06.391Z,5.13
2023-03-16T23:52:34.509Z,5.22
2023-03-16T23:55:01.286Z,8.32
2023-03-16T23:57:27.978Z,8.65
2023-03-16T23:59:54.912Z,6.60
